Time;durP1;ratioP1;P1;durP2;ratioP2;P2;SDS_P1;SDS_P2;PMS_P1;PMS_P2;Temp;Humidity;BMP_temperature;BMP_pressure;BME280_temperature;BME280_humidity;BME280_pressure;Samples;Min_cycle;Max_cycle;Signal;HPM_P1;HPM_P2
2023/12/15 00:01:28;;;;;;;6.93;4.00;;;;;;;9.32;100.00;99975.91;5094067;28;20031;-47
2023/12/15 00:03:54;;;;;;;5.97;3.35;;;;;;;9.30;100.00;99981.31;5092663;28;20020;-47
2023/12/15 00:06:19;;;;;;;5.97;4.07;;;;;;;9.38;100.00;99986.56;5092624;28;20032;-47
2023/12/15 00:08:45;;;;;;;22.40;20.02;;;;;;;9.42;100.00;99994.94;5092601;28;20405;-48
2023/12/15 00:11:10;;;;;;;5.68;5.05;;;;;;;9.43;100.00;99999.19;5094043;28;20392;-47
2023/12/15 00:13:36;;;;;;;6.07;3.00;;;;;;;9.50;100.00;100004.63;5093827;28;20549;-47
2023/12/15 00:16:02;;;;;;;11.60;5.43;;;;;;;9.57;100.00;100009.03;5092469;28;20031;-47
2023/12/15 00:18:28;;;;;;;6.13;3.70;;;;;;;9.64;100.00;100014.47;5092368;28;20028;-48
2023/12/15 00:20:54;;;;;;;19.48;14.07;;;;;;;9.66;100.00;100011.66;5093618;28;20104;-48
2023/12/15 00:23:20;;;;;;;13.00;5.97;;;;;;;9.71;100.00;100018.06;5093489;28;20032;-47
2023/12/15 00:25:46;;;;;;;225.82;163.55;;;;;;;9.76;100.00;100021.03;5092109;28;20498;-47
2023/12/15 00:28:12;;;;;;;21.98;12.35;;;;;;;9.69;100.00;100009.56;5093506;28;20031;-47
2023/12/15 00:30:37;;;;;;;9.48;5.15;;;;;;;9.64;100.00;100019.72;5092168;28;20100;-47
2023/12/15 00:33:03;;;;;;;5.80;5.00;;;;;;;9.57;100.00;100021.31;5093360;28;20082;-47
2023/12/15 00:35:29;;;;;;;6.70;4.60;;;;;;;9.57;100.00;100013.47;5075090;28;20024;-47
2023/12/15 00:37:55;;;;;;;6.55;4.10;;;;;;;9.64;100.00;100016.25;5093037;28;20532;-48
2023/12/15 00:40:22;;;;;;;5.00;3.40;;;;;;;9.75;100.00;100024.63;5091938;28;20024;-47
2023/12/15 00:42:48;;;;;;;4.82;3.45;;;;;;;9.73;100.00;100021.34;5093229;28;20024;-47
2023/12/15 00:45:14;;;;;;;4.35;3.22;;;;;;;9.67;100.00;100024.63;5091975;28;20020;-47
2023/12/15 00:47:40;;;;;;;7.72;4.05;;;;;;;9.64;100.00;100026.75;5093007;28;20035;-47
2023/12/15 00:50:07;;;;;;;8.00;3.17;;;;;;;9.54;100.00;100032.16;5091774;28;20103;-48
2023/12/15 00:52:32;;;;;;;6.43;3.30;;;;;;;9.48;100.00;100027.56;5092996;28;20486;-47
2023/12/15 00:54:58;;;;;;;12.18;10.98;;;;;;;9.41;100.00;100032.59;5092180;28;20028;-47
2023/12/15 00:57:23;;;;;;;6.63;3.63;;;;;;;9.43;100.00;100032.44;5092826;28;20024;-47
2023/12/15 00:59:49;;;;;;;21.48;19.48;;;;;;;9.48;100.00;100041.47;5074810;28;20035;-47
2023/12/15 01:02:15;;;;;;;8.20;3.85;;;;;;;9.50;100.00;100051.78;5091531;28;20397;-47
2023/12/15 01:04:41;;;;;;;5.47;2.85;;;;;;;9.49;100.00;100052.75;5091521;28;20482;-47
2023/12/15 01:07:06;;;;;;;4.38;2.90;;;;;;;9.44;100.00;100052.41;5092778;28;20028;-47
2023/12/15 01:09:32;;;;;;;7.07;2.83;;;;;;;9.45;100.00;100054.06;5091515;28;20032;-47
2023/12/15 01:11:57;;;;;;;9.43;3.00;;;;;;;9.43;100.00;100059.44;5092676;28;20032;-47
2023/12/15 01:14:23;;;;;;;9.38;3.90;;;;;;;9.39;100.00;100050.25;5092636;28;20022;-47
2023/12/15 01:16:50;;;;;;;6.70;3.55;;;;;;;9.35;100.00;100062.84;5092490;28;20511;-47
2023/12/15 01:19:17;;;;;;;8.88;3.30;;;;;;;9.37;100.00;100063.50;5092617;28;20016;-48
2023/12/15 01:21:44;;;;;;;7.30;3.63;;;;;;;9.39;100.00;100074.66;5092747;28;20511;-47
2023/12/15 01:24:11;;;;;;;8.75;3.83;;;;;;;9.40;100.00;100080.75;5091146;28;20124;-47
2023/12/15 01:26:37;;;;;;;5.50;3.95;;;;;;;9.44;100.00;100081.22;5092339;28;20039;-47
2023/12/15 01:29:03;;;;;;;6.38;3.10;;;;;;;9.51;100.00;100084.88;5091099;28;20025;-47
2023/12/15 01:31:28;;;;;;;6.60;3.42;;;;;;;9.59;100.00;100085.69;5092330;28;20035;-47
2023/12/15 01:33:54;;;;;;;11.68;6.68;;;;;;;9.52;100.00;100087.34;5092354;28;20027;-47
2023/12/15 01:36:20;;;;;;;6.18;4.00;;;;;;;9.48;100.00;100093.88;5092215;28;20028;-48
2023/12/15 01:38:45;;;;;;;5.82;3.63;;;;;;;9.47;100.00;100096.66;5090887;28;20130;-47
2023/12/15 01:41:11;;;;;;;4.28;3.40;;;;;;;9.53;100.00;100099.44;5092273;28;20069;-48
2023/12/15 01:43:37;;;;;;;8.88;5.55;;;;;;;9.49;100.00;100103.34;5090909;28;20035;-48
2023/12/15 01:46:02;;;;;;;6.18;4.95;;;;;;;9.60;100.00;100102.28;5090838;28;20035;-47
2023/12/15 01:48:31;;;;;;;10.18;4.43;;;;;;;9.68;100.00;100104.91;5090874;28;20028;-47
2023/12/15 01:50:57;;;;;;;5.40;3.33;;;;;;;9.67;100.00;100113.75;5090818;28;20123;-48
2023/12/15 01:53:23;;;;;;;10.38;4.90;;;;;;;9.72;100.00;100108.06;5090782;28;20107;-48
2023/12/15 01:55:49;;;;;;;7.95;5.22;;;;;;;9.70;100.00;100109.97;5091825;28;20422;-48
2023/12/15 01:58:14;;;;;;;7.93;3.75;;;;;;;9.80;100.00;100108.06;5090836;28;20066;-48
2023/12/15 02:00:40;;;;;;;8.98;5.22;;;;;;;9.76;100.00;100109.38;5091969;28;20020;-48
2023/12/15 02:03:06;;;;;;;4.55;3.58;;;;;;;9.67;100.00;100115.56;5092009;28;20021;-48
2023/12/15 02:05:32;;;;;;;9.23;4.68;;;;;;;9.66;100.00;100116.53;5090882;28;20047;-48
2023/12/15 02:07:58;;;;;;;6.35;4.00;;;;;;;9.56;100.00;100119.28;5090396;28;20024;-47
2023/12/15 02:10:24;;;;;;;11.32;6.25;;;;;;;9.57;100.00;100129.59;5091865;28;20077;-48
2023/12/15 02:12:50;;;;;;;6.97;3.65;;;;;;;9.55;100.00;100135.97;5091757;28;20028;-47
2023/12/15 02:15:16;;;;;;;8.75;3.88;;;;;;;9.52;100.00;100131.88;5090452;28;20028;-48
2023/12/15 02:17:42;;;;;;;9.68;5.72;;;;;;;9.50;100.00;100133.03;5091715;28;20370;-47
2023/12/15 02:20:08;;;;;;;9.55;3.65;;;;;;;9.48;100.00;100146.28;5090472;28;20020;-48
2023/12/15 02:22:33;;;;;;;44.80;40.75;;;;;;;9.43;100.00;100145.91;5092036;28;20035;-48
2023/12/15 02:24:59;;;;;;;14.27;11.85;;;;;;;9.47;100.00;100136.75;5090388;28;20486;-47
2023/12/15 02:27:25;;;;;;;38.45;34.60;;;;;;;9.59;100.00;100140.75;5091684;28;20093;-48
2023/12/15 02:29:50;;;;;;;29.25;26.27;;;;;;;9.71;100.00;100135.22;5090313;28;20444;-48
2023/12/15 02:32:16;;;;;;;14.20;10.63;;;;;;;9.70;100.00;100147.53;5073573;28;20089;-48
2023/12/15 02:34:42;;;;;;;11.35;7.45;;;;;;;9.74;100.00;100148.03;5090254;28;20111;-48
2023/12/15 02:37:08;;;;;;;9.95;5.88;;;;;;;9.91;100.00;100149.72;5091258;28;20087;-48
2023/12/15 02:39:33;;;;;;;8.93;6.68;;;;;;;10.08;100.00;100144.50;5090414;28;20038;-48
2023/12/15 02:41:59;;;;;;;7.90;3.90;;;;;;;9.99;100.00;100141.03;5091456;28;20016;-48
2023/12/15 02:44:25;;;;;;;4.47;3.35;;;;;;;9.94;100.00;100153.81;5091609;28;20398;-47
2023/12/15 02:46:50;;;;;;;59.65;52.38;;;;;;;9.89;100.00;100154.28;5090136;28;20050;-47
2023/12/15 02:49:18;;;;;;;6.85;3.60;;;;;;;10.11;100.00;100147.63;5090164;28;20028;-48
2023/12/15 02:51:44;;;;;;;9.05;3.28;;;;;;;10.11;100.00;100147.63;5091453;28;20020;-48
2023/12/15 02:54:10;;;;;;;8.77;3.90;;;;;;;10.03;100.00;100144.16;5091494;28;20024;-48
2023/12/15 02:56:36;;;;;;;7.90;6.60;;;;;;;9.88;100.00;100154.44;5091317;28;20039;-47
2023/12/15 02:59:03;;;;;;;5.72;4.22;;;;;;;9.83;100.00;100151.50;5091455;28;20025;-48
2023/12/15 03:01:29;;;;;;;10.80;7.15;;;;;;;9.70;100.00;100147.53;5091306;28;20027;-48
2023/12/15 03:03:55;;;;;;;11.45;10.32;;;;;;;9.59;100.00;100151.22;5090170;28;20028;-47
2023/12/15 03:06:20;;;;;;;12.10;4.13;;;;;;;9.59;100.00;100153.84;5090113;28;20489;-48
2023/12/15 03:08:46;;;;;;;8.00;4.38;;;;;;;9.62;100.00;100151.88;5073231;28;20032;-48
2023/12/15 03:11:12;;;;;;;12.55;9.30;;;;;;;9.53;100.00;100151.84;5089966;28;20032;-47
2023/12/15 03:13:38;;;;;;;81.50;73.22;;;;;;;9.44;100.00;100159.84;5089961;28;20428;-47
2023/12/15 03:16:06;;;;;;;30.00;26.83;;;;;;;9.47;100.00;100162.97;5073073;28;20107;-48
2023/12/15 03:18:31;;;;;;;19.15;15.82;;;;;;;9.35;100.00;100164.22;5092368;28;20020;-47
2023/12/15 03:20:57;;;;;;;18.05;12.82;;;;;;;9.29;100.00;100164.84;5093501;28;20024;-47
2023/12/15 03:23:22;;;;;;;7.88;4.35;;;;;;;9.28;100.00;100173.69;5093483;28;20486;-48
2023/12/15 03:25:48;;;;;;;9.48;6.88;;;;;;;9.21;100.00;100170.84;5093337;28;20032;-48
2023/12/15 03:28:15;;;;;;;9.77;7.20;;;;;;;9.18;100.00;100163.31;5094743;28;20425;-47
2023/12/15 03:30:41;;;;;;;8.18;6.38;;;;;;;9.25;100.00;100174.00;5094588;28;20030;-48
2023/12/15 03:33:06;;;;;;;11.13;5.07;;;;;;;9.22;100.00;100174.31;5094625;28;20095;-48
2023/12/15 03:35:32;;;;;;;8.43;5.40;;;;;;;9.22;100.00;100179.56;5094492;28;20095;-47
2023/12/15 03:37:57;;;;;;;8.27;3.63;;;;;;;9.24;100.00;100175.81;5094173;28;20151;-47
2023/12/15 03:40:23;;;;;;;8.27;6.05;;;;;;;9.17;100.00;100172.13;5093166;28;20094;-47
2023/12/15 03:42:49;;;;;;;9.07;4.30;;;;;;;9.23;100.00;100175.94;5094440;28;20021;-48
2023/12/15 03:45:14;;;;;;;8.05;4.28;;;;;;;9.19;100.00;100173.66;5094373;28;20013;-47
2023/12/15 03:47:40;;;;;;;6.63;4.82;;;;;;;9.19;100.00;100178.88;5094314;28;20099;-48
2023/12/15 03:50:06;;;;;;;7.72;3.80;;;;;;;9.14;100.00;100177.69;5092977;28;20028;-47
2023/12/15 03:52:33;;;;;;;8.05;4.57;;;;;;;9.11;100.00;100178.00;5092908;28;20031;-48
2023/12/15 03:54:58;;;;;;;8.80;5.38;;;;;;;9.12;100.00;100172.59;5094108;28;20107;-47
2023/12/15 03:57:24;;;;;;;9.38;4.53;;;;;;;9.13;100.00;100171.63;5075963;28;20123;-47
2023/12/15 03:59:51;;;;;;;8.85;4.60;;;;;;;9.16;100.00;100166.09;5094084;28;20031;-48
2023/12/15 04:02:19;;;;;;;9.77;4.13;;;;;;;9.09;100.00;100172.91;5093995;28;20076;-47
2023/12/15 04:04:44;;;;;;;11.60;6.18;;;;;;;9.08;100.00;100170.47;5093908;28;20023;-47
2023/12/15 04:07:10;;;;;;;13.55;4.18;;;;;;;9.09;100.00;100172.09;5092632;28;20036;-48
2023/12/15 04:09:36;;;;;;;10.93;3.45;;;;;;;9.02;100.00;100182.38;5092569;28;20020;-47
2023/12/15 04:12:03;;;;;;;7.50;4.22;;;;;;;8.96;100.00;100178.56;5092511;28;20405;-47
2023/12/15 04:14:29;;;;;;;5.78;3.65;;;;;;;8.92;100.00;100171.97;5094050;28;20103;-48
2023/12/15 04:16:55;;;;;;;5.82;3.95;;;;;;;8.85;100.00;100175.34;5075584;28;20078;-47
2023/12/15 04:19:21;;;;;;;8.43;4.20;;;;;;;8.77;100.00;100168.25;5092535;28;20020;-47
2023/12/15 04:21:46;;;;;;;13.20;7.47;;;;;;;8.67;100.00;100157.06;5092312;28;20024;-48
2023/12/15 04:24:12;;;;;;;7.57;3.95;;;;;;;8.65;100.00;100165.06;5093586;28;20085;-47
2023/12/15 04:26:38;;;;;;;7.53;4.38;;;;;;;8.59;100.00;100169.13;5092244;28;20032;-47
2023/12/15 04:29:03;;;;;;;9.15;4.30;;;;;;;8.47;100.00;100167.72;5093259;28;20016;-47
2023/12/15 04:31:29;;;;;;;11.75;5.57;;;;;;;8.39;100.00;100167.56;5074379;28;20097;-47
2023/12/15 04:33:54;;;;;;;11.10;7.05;;;;;;;8.28;100.00;100165.19;5093420;28;20432;-47
2023/12/15 04:36:20;;;;;;;17.90;11.93;;;;;;;8.37;100.00;100169.53;5093341;28;20019;-47
2023/12/15 04:38:47;;;;;;;6.75;4.47;;;;;;;8.42;100.00;100169.94;5091772;28;20426;-47
2023/12/15 04:41:19;;;;;;;9.00;4.00;;;;;;;8.44;100.00;100175.84;5093274;28;20103;-47
2023/12/15 04:43:45;;;;;;;8.55;4.20;;;;;;;8.53;100.00;100169.72;5091940;28;20493;-47
2023/12/15 04:46:11;;;;;;;18.58;4.68;;;;;;;8.54;100.00;100175.78;5091930;28;20065;-47
2023/12/15 04:48:38;;;;;;;15.60;5.13;;;;;;;8.46;100.00;100179.13;5091828;28;20575;-47
2023/12/15 04:51:04;;;;;;;11.40;5.65;;;;;;;8.34;100.00;100175.06;5093079;28;20428;-47
2023/12/15 04:53:30;;;;;;;17.52;5.13;;;;;;;8.28;100.00;100180.88;5091801;28;20409;-48
2023/12/15 04:55:55;;;;;;;11.05;5.82;;;;;;;8.26;100.00;100175.81;5092881;28;20016;-47
2023/12/15 04:58:21;;;;;;;12.20;6.63;;;;;;;8.28;100.00;100180.88;5092980;28;20093;-47
2023/12/15 05:00:46;;;;;;;13.10;5.75;;;;;;;8.15;100.00;100186.50;5091653;28;20444;-47
2023/12/15 05:03:12;;;;;;;8.88;4.88;;;;;;;7.96;100.00;100176.97;5092860;28;20036;-47
2023/12/15 05:05:38;;;;;;;12.30;6.00;;;;;;;7.87;100.00;100183.03;5092868;28;20024;-47
2023/12/15 05:08:04;;;;;;;13.73;5.63;;;;;;;7.79;100.00;100184.63;5092848;28;20394;-47
2023/12/15 05:10:29;;;;;;;16.08;9.43;;;;;;;7.77;100.00;100183.94;5091454;28;20032;-48
2023/12/15 05:12:55;;;;;;;6.97;5.40;;;;;;;7.68;100.00;100187.41;5092770;28;20468;-47
2023/12/15 05:15:21;;;;;;;7.80;5.20;;;;;;;7.67;100.00;100195.41;5091314;28;20549;-47
2023/12/15 05:17:46;;;;;;;13.88;5.82;;;;;;;7.68;100.00;100204.88;5092568;28;20032;-48
2023/12/15 05:20:12;;;;;;;8.25;4.40;;;;;;;7.79;100.00;100207.31;5092608;28;20016;-47
2023/12/15 05:22:37;;;;;;;11.48;8.88;;;;;;;7.89;100.00;100207.28;5091153;28;20027;-47
2023/12/15 05:25:03;;;;;;;10.68;5.38;;;;;;;7.98;100.00;100211.63;5091182;28;20394;-47
2023/12/15 05:27:29;;;;;;;7.95;4.75;;;;;;;7.99;100.00;100202.81;5091153;28;20494;-47
2023/12/15 05:29:55;;;;;;;12.52;5.78;;;;;;;8.04;100.00;100211.03;5091097;28;20030;-47
2023/12/15 05:32:20;;;;;;;15.77;6.65;;;;;;;8.14;100.00;100211.78;5092363;28;20460;-48
2023/12/15 05:34:46;;;;;;;11.02;5.25;;;;;;;8.31;100.00;100211.97;5092295;28;20022;-47
2023/12/15 05:37:13;;;;;;;17.38;6.53;;;;;;;8.45;100.00;100223.75;5090591;28;20054;-48
2023/12/15 05:39:42;;;;;;;13.32;4.57;;;;;;;8.60;100.00;100225.69;5092216;28;20047;-47
2023/12/15 05:42:08;;;;;;;19.13;11.15;;;;;;;8.55;100.00;100227.97;5090623;28;20035;-48
2023/12/15 05:44:33;;;;;;;13.40;4.90;;;;;;;8.52;100.00;100230.03;5090841;28;20028;-47
2023/12/15 05:46:59;;;;;;;7.00;4.68;;;;;;;8.82;100.00;100228.03;5090832;28;20444;-48
2023/12/15 05:49:25;;;;;;;12.43;4.80;;;;;;;8.84;100.00;100229.53;5074049;28;20031;-47
2023/12/15 05:51:50;;;;;;;9.55;5.15;;;;;;;8.67;100.00;100231.19;5092053;28;20410;-48
2023/12/15 05:54:16;;;;;;;13.38;5.50;;;;;;;8.48;100.00;100237.38;5090765;28;20038;-47
2023/12/15 05:56:42;;;;;;;15.48;13.55;;;;;;;8.50;100.00;100242.47;5091939;28;20110;-48
2023/12/15 05:59:08;;;;;;;35.20;20.75;;;;;;;8.40;100.00;100237.25;5090649;28;20118;-47
2023/12/15 06:01:34;;;;;;;17.10;6.18;;;;;;;8.29;100.00;100238.28;5091963;28;20136;-48
2023/12/15 06:03:59;;;;;;;8.80;4.65;;;;;;;8.19;100.00;100237.53;5090669;28;20059;-47
2023/12/15 06:06:25;;;;;;;11.50;4.85;;;;;;;8.04;100.00;100242.41;5091880;28;20043;-48
2023/12/15 06:08:51;;;;;;;10.65;5.18;;;;;;;7.89;100.00;100244.69;5091812;28;20126;-47
2023/12/15 06:11:17;;;;;;;9.85;5.15;;;;;;;7.83;100.00;100245.25;5091860;28;20099;-47
2023/12/15 06:13:43;;;;;;;16.88;5.82;;;;;;;7.76;100.00;100245.00;5091824;28;20042;-47
2023/12/15 06:16:18;;;;;;;12.23;5.32;;;;;;;7.67;100.00;100251.09;5090402;28;20032;-48
2023/12/15 06:18:44;;;;;;;21.35;5.93;;;;;;;7.67;100.00;100256.31;5091854;28;20023;-48
2023/12/15 06:21:09;;;;;;;11.07;5.60;;;;;;;7.69;100.00;100269.25;5091781;28;20112;-48
2023/12/15 06:23:35;;;;;;;8.15;5.88;;;;;;;7.63;100.00;100265.41;5091790;28;20394;-47
2023/12/15 06:26:01;;;;;;;10.27;5.85;;;;;;;7.51;100.00;100274.38;5091689;28;20024;-48
2023/12/15 06:28:26;;;;;;;14.80;5.78;;;;;;;7.38;100.00;100278.13;5091779;28;20542;-48
2023/12/15 06:30:52;;;;;;;14.07;5.53;;;;;;;7.43;100.00;100269.88;5091716;28;20028;-47
2023/12/15 06:33:19;;;;;;;26.83;7.30;;;;;;;7.46;100.00;100281.81;5091593;28;20031;-47
2023/12/15 06:35:45;;;;;;;17.70;6.82;;;;;;;7.45;100.00;100275.78;5091576;28;20050;-47
2023/12/15 06:38:11;;;;;;;13.10;6.40;;;;;;;7.49;100.00;100286.78;5091471;28;20459;-48
2023/12/15 06:40:37;;;;;;;21.88;7.85;;;;;;;7.46;100.00;100292.25;5091670;28;20028;-47
2023/12/15 06:43:02;;;;;;;88.78;14.18;;;;;;;7.38;100.00;100293.81;5091663;28;20047;-47
2023/12/15 06:45:28;;;;;;;41.03;10.68;;;;;;;7.36;100.00;100292.28;5091590;28;20024;-47
2023/12/15 06:47:54;;;;;;;48.90;11.30;;;;;;;7.33;100.00;100292.56;5091611;28;20098;-47
2023/12/15 06:50:19;;;;;;;17.40;6.53;;;;;;;7.56;100.00;100293.88;5091527;28;20367;-47
2023/12/15 06:52:45;;;;;;;17.20;6.93;;;;;;;7.65;100.00;100307.09;5091481;28;20032;-47
2023/12/15 06:55:11;;;;;;;16.77;7.47;;;;;;;7.66;100.00;100306.09;5095321;28;20055;-48
2023/12/15 06:57:36;;;;;;;11.05;6.53;;;;;;;7.63;100.00;100309.03;5095283;28;20020;-47
2023/12/15 07:00:02;;;;;;;11.70;6.00;;;;;;;7.52;100.00;100308.19;5095282;28;20016;-48
2023/12/15 07:02:28;;;;;;;12.40;5.60;;;;;;;7.52;100.00;100312.59;5093883;28;20073;-47
2023/12/15 07:04:54;;;;;;;15.38;6.40;;;;;;;7.46;100.00;100321.81;5095238;28;20020;-47
2023/12/15 07:07:21;;;;;;;15.45;5.78;;;;;;;7.39;100.00;100332.00;5093818;28;20027;-47
2023/12/15 07:09:46;;;;;;;12.90;6.22;;;;;;;7.37;100.00;100333.94;5095024;28;20051;-47
2023/12/15 07:12:12;;;;;;;9.27;6.15;;;;;;;7.36;100.00;100336.66;5093700;28;20065;-48
2023/12/15 07:14:38;;;;;;;9.70;5.60;;;;;;;7.24;100.00;100351.66;5093624;28;20024;-47
2023/12/15 07:17:04;;;;;;;12.30;8.63;;;;;;;7.17;100.00;100353.19;5094896;28;20379;-47
2023/12/15 07:19:30;;;;;;;12.88;8.70;;;;;;;7.25;100.00;100345.47;5093897;28;20024;-47
2023/12/15 07:21:56;;;;;;;12.48;7.22;;;;;;;7.36;100.00;100353.19;5094832;28;20048;-48
2023/12/15 07:24:22;;;;;;;12.25;5.55;;;;;;;7.47;100.00;100361.84;5094836;28;20274;-47
2023/12/15 07:26:47;;;;;;;15.80;7.05;;;;;;;7.52;100.00;100365.66;5093398;28;20036;-48
2023/12/15 07:29:13;;;;;;;12.38;5.60;;;;;;;7.75;100.00;100378.44;5094726;28;20020;-48
2023/12/15 07:31:39;;;;;;;11.20;6.25;;;;;;;7.98;100.00;100374.53;5093327;28;20047;-47
2023/12/15 07:34:05;;;;;;;14.80;5.95;;;;;;;8.11;100.00;100381.22;5093305;28;20028;-48
2023/12/15 07:36:31;;;;;;;18.08;6.32;;;;;;;8.23;100.00;100392.34;5094427;28;20070;-47
2023/12/15 07:38:57;;;;;;;13.05;6.18;;;;;;;8.32;100.00;100391.50;5094447;28;20073;-48
2023/12/15 07:41:23;;;;;;;12.43;6.20;;;;;;;8.26;100.00;100398.13;5094492;28;20563;-47
2023/12/15 07:43:49;;;;;;;14.02;5.95;;;;;;;8.30;100.00;100396.06;5094681;28;20032;-48
2023/12/15 07:46:18;;;;;;;12.88;5.97;;;;;;;8.33;100.00;100407.06;5093064;28;20035;-48
2023/12/15 07:48:44;;;;;;;13.93;6.55;;;;;;;8.30;100.00;100414.38;5094372;28;20024;-47
2023/12/15 07:51:21;;;;;;;17.58;6.35;;;;;;;8.15;100.00;100414.81;5094206;28;20023;-47
2023/12/15 07:53:47;;;;;;;17.55;6.10;;;;;;;8.14;100.00;100413.16;5094242;28;20031;-47
2023/12/15 07:56:27;;;;;;;15.05;6.53;;;;;;;8.18;100.00;100422.38;5094015;28;20028;-47
2023/12/15 07:58:54;;;;;;;13.77;5.93;;;;;;;8.27;100.00;100428.56;5094203;28;20024;-48
2023/12/15 08:01:21;;;;;;;12.82;6.00;;;;;;;8.26;100.00;100436.53;5092771;28;20397;-48
2023/12/15 08:03:48;;;;;;;8.77;4.88;;;;;;;8.21;100.00;100436.97;5093794;28;20059;-47
2023/12/15 08:06:15;;;;;;;18.33;6.13;;;;;;;8.19;100.00;100446.75;5093039;28;20449;-47
2023/12/15 08:08:42;;;;;;;14.10;5.50;;;;;;;8.16;100.00;100447.84;5093937;28;20528;-48
2023/12/15 08:11:10;;;;;;;13.18;5.78;;;;;;;8.18;100.00;100445.91;5092594;28;20020;-47
2023/12/15 08:13:39;;;;;;;12.40;8.07;;;;;;;8.25;100.00;100442.72;5092677;28;20024;-48
2023/12/15 08:16:06;;;;;;;19.40;8.63;;;;;;;8.32;100.00;100452.47;5094051;28;20024;-47
2023/12/15 08:18:32;;;;;;;17.27;6.43;;;;;;;8.46;100.00;100448.63;5093736;28;20026;-48
2023/12/15 08:20:58;;;;;;;11.05;5.88;;;;;;;8.54;100.00;100448.72;5093701;28;20028;-47
2023/12/15 08:23:24;;;;;;;12.05;5.43;;;;;;;8.57;100.00;100451.06;5092362;28;20043;-47
2023/12/15 08:25:50;;;;;;;16.85;6.22;;;;;;;8.58;100.00;100449.28;5093528;28;20024;-48
2023/12/15 08:28:18;;;;;;;23.80;7.85;;;;;;;8.67;100.00;100447.56;5075474;28;20027;-47
2023/12/15 08:30:44;;;;;;;19.35;6.05;;;;;;;8.69;100.00;100449.09;5093542;28;20077;-47
2023/12/15 08:33:10;;;;;;;12.90;5.80;;;;;;;8.65;100.00;100449.50;5093565;28;20401;-47
2023/12/15 08:35:36;;;;;;;10.73;5.40;;;;;;;8.62;100.00;100461.09;5092040;28;20031;-47
2023/12/15 08:38:02;;;;;;;12.63;5.90;;;;;;;8.68;100.00;100462.31;5093180;28;20122;-48
2023/12/15 08:40:27;;;;;;;15.60;7.05;;;;;;;8.72;100.00;100461.88;5091986;28;20494;-48
2023/12/15 08:42:53;;;;;;;12.77;6.18;;;;;;;8.70;100.00;100465.63;5092165;28;20468;-48
2023/12/15 08:45:19;;;;;;;9.13;5.70;;;;;;;8.76;100.00;100457.19;5091954;28;20028;-48
2023/12/15 08:47:45;;;;;;;15.15;5.55;;;;;;;8.82;100.00;100472.31;5093201;28;20020;-48
2023/12/15 08:50:10;;;;;;;15.57;5.78;;;;;;;8.92;100.00;100474.88;5091803;28;20028;-47
2023/12/15 08:52:36;;;;;;;10.77;6.53;;;;;;;9.02;100.00;100470.44;5091791;28;20027;-48
2023/12/15 08:55:02;;;;;;;21.63;6.47;;;;;;;9.06;100.00;100473.59;5093083;28;20027;-48
2023/12/15 08:57:28;;;;;;;21.02;8.35;;;;;;;9.13;100.00;100462.34;5092926;28;20012;-48
2023/12/15 08:59:54;;;;;;;13.55;5.95;;;;;;;9.27;100.00;100463.66;5091714;28;20032;-48
2023/12/15 09:02:19;;;;;;;16.67;6.65;;;;;;;9.33;100.00;100472.72;5092930;28;20052;-48
2023/12/15 09:04:45;;;;;;;10.88;5.75;;;;;;;9.25;100.00;100467.41;5092903;28;20508;-47
2023/12/15 09:07:11;;;;;;;12.63;6.25;;;;;;;9.20;100.00;100481.75;5091505;28;20020;-47
2023/12/15 09:09:38;;;;;;;10.68;5.47;;;;;;;9.22;100.00;100483.44;5092716;28;20034;-47
2023/12/15 09:12:05;;;;;;;19.00;5.95;;;;;;;9.30;100.00;100481.72;5091452;28;20069;-48
2023/12/15 09:14:32;;;;;;;13.27;5.95;;;;;;;9.43;100.00;100493.63;5092986;28;20455;-48
2023/12/15 09:16:58;;;;;;;15.50;6.28;;;;;;;9.40;100.00;100498.19;5091930;28;20016;-48
2023/12/15 09:19:26;;;;;;;10.48;5.93;;;;;;;9.49;100.00;100501.72;5092604;28;20103;-48
2023/12/15 09:21:53;;;;;;;10.35;5.88;;;;;;;9.55;100.00;100498.50;5092576;28;20024;-48
2023/12/15 09:24:19;;;;;;;12.98;6.18;;;;;;;9.54;100.00;100499.47;5092491;28;20040;-47
2023/12/15 09:26:45;;;;;;;11.50;6.53;;;;;;;9.64;100.00;100504.66;5091074;28;20448;-47
2023/12/15 09:29:13;;;;;;;11.07;5.85;;;;;;;9.73;100.00;100506.38;5092461;28;20023;-48
2023/12/15 09:31:39;;;;;;;18.63;6.97;;;;;;;9.85;100.00;100508.78;5092404;28;20024;-48
2023/12/15 09:34:05;;;;;;;11.95;5.82;;;;;;;10.02;100.00;100504.47;5092417;28;20051;-48
2023/12/15 09:36:31;;;;;;;13.20;9.27;;;;;;;10.31;100.00;100502.44;5092504;28;20024;-48
2023/12/15 09:38:57;;;;;;;11.05;6.43;;;;;;;10.50;100.00;100506.69;5090718;28;20052;-48
2023/12/15 09:41:22;;;;;;;31.50;27.20;;;;;;;10.84;100.00;100508.47;5090862;28;20120;-48
2023/12/15 09:43:48;;;;;;;12.00;7.18;;;;;;;11.14;100.00;100508.94;5092228;28;20127;-48
2023/12/15 09:46:15;;;;;;;13.05;6.30;;;;;;;11.77;100.00;100490.03;5090883;28;20060;-48
2023/12/15 09:48:41;;;;;;;13.13;5.60;;;;;;;12.07;100.00;100486.94;5090845;28;20461;-48
2023/12/15 09:51:12;;;;;;;9.73;6.03;;;;;;;12.41;100.00;100489.34;5092285;28;20469;-48
2023/12/15 09:53:38;;;;;;;12.15;6.47;;;;;;;12.01;100.00;100496.28;5092105;28;20044;-48
2023/12/15 09:56:05;;;;;;;13.07;5.32;;;;;;;11.58;98.38;100495.59;5091928;28;20028;-48
2023/12/15 09:58:31;;;;;;;15.60;6.13;;;;;;;11.30;96.61;100503.75;5090706;28;20093;-48
2023/12/15 10:00:57;;;;;;;12.02;5.43;;;;;;;11.31;99.43;100500.13;5090674;28;20028;-48
2023/12/15 10:03:23;;;;;;;14.98;5.35;;;;;;;11.55;100.00;100498.53;5091959;28;20035;-48
2023/12/15 10:05:49;;;;;;;10.68;5.57;;;;;;;11.80;100.00;100494.94;5091958;28;20024;-48
2023/12/15 10:08:14;;;;;;;12.90;6.45;;;;;;;11.95;100.00;100497.81;5090657;28;20084;-48
2023/12/15 10:10:41;;;;;;;14.63;7.32;;;;;;;13.09;100.00;100487.16;5091869;28;20031;-48
2023/12/15 10:13:07;;;;;;;11.27;5.75;;;;;;;13.38;100.00;100487.38;5090572;28;20127;-48
2023/12/15 10:15:32;;;;;;;15.52;8.00;;;;;;;13.14;96.47;100504.09;5091831;28;20533;-48
2023/12/15 10:17:58;;;;;;;8.90;5.80;;;;;;;12.94;99.44;100505.53;5090455;28;20021;-48
2023/12/15 10:20:24;;;;;;;11.50;5.32;;;;;;;12.72;100.00;100509.72;5092073;28;20389;-48
2023/12/15 10:23:07;;;;;;;13.13;7.82;;;;;;;12.47;99.47;100501.84;5090498;28;20444;-48
2023/12/15 10:25:33;;;;;;;22.23;7.63;;;;;;;12.19;100.00;100504.88;5090406;28;20578;-48
2023/12/15 10:27:59;;;;;;;8.45;5.75;;;;;;;12.55;100.00;100515.00;5093703;28;20039;-48
2023/12/15 10:30:25;;;;;;;7.80;5.70;;;;;;;12.59;100.00;100510.22;5094627;28;20020;-48
2023/12/15 10:32:54;;;;;;;12.60;5.28;;;;;;;12.32;96.30;100503.53;5095815;28;20089;-48
2023/12/15 10:35:23;;;;;;;11.13;5.30;;;;;;;12.50;97.12;100505.97;5095737;28;20020;-48
2023/12/15 10:37:49;;;;;;;7.85;4.95;;;;;;;13.21;100.00;100496.31;5094088;28;20074;-48
2023/12/15 10:40:15;;;;;;;8.07;4.45;;;;;;;14.47;100.00;100489.78;5095674;28;20055;-48
2023/12/15 10:42:44;;;;;;;19.02;14.05;;;;;;;14.53;97.05;100486.41;5094325;28;20042;-49
2023/12/15 10:45:10;;;;;;;11.65;7.75;;;;;;;14.34;96.60;100481.66;5094255;28;20059;-49
2023/12/15 10:47:37;;;;;;;6.82;4.40;;;;;;;14.25;94.68;100486.19;5095492;28;20402;-48
2023/12/15 10:50:04;;;;;;;11.85;8.43;;;;;;;14.55;96.21;100484.41;5096002;28;20021;-48
2023/12/15 10:52:33;;;;;;;10.63;6.10;;;;;;;14.13;92.10;100483.16;5095690;28;20436;-49
2023/12/15 10:55:03;;;;;;;7.40;4.70;;;;;;;13.65;92.34;100484.41;5095332;28;20059;-48
2023/12/15 10:57:32;;;;;;;8.02;5.60;;;;;;;13.26;94.45;100486.09;5095228;28;20028;-48
2023/12/15 11:00:00;;;;;;;8.80;5.13;;;;;;;12.88;94.86;100474.59;5095355;28;20012;-48
2023/12/15 11:02:28;;;;;;;9.20;6.28;;;;;;;12.58;96.57;100479.63;5095274;28;20085;-48
2023/12/15 11:04:58;;;;;;;9.02;5.28;;;;;;;12.37;97.08;100490.66;5095239;28;20024;-48
2023/12/15 11:07:24;;;;;;;9.45;5.30;;;;;;;12.22;96.17;100487.91;5095025;28;20028;-48
2023/12/15 11:09:51;;;;;;;11.95;5.68;;;;;;;11.89;95.65;100495.81;5095109;28;20024;-48
2023/12/15 11:12:29;;;;;;;7.75;6.25;;;;;;;11.67;96.59;100492.00;5093734;28;20058;-48
2023/12/15 11:15:00;;;;;;;9.98;7.47;;;;;;;11.48;97.94;100487.03;5093750;28;20024;-48